createdAt,value
2022-08-09T00:01:48.336Z,22.40
2022-08-09T00:04:24.969Z,22.40
2022-08-09T00:07:02.050Z,22.40
2022-08-09T00:09:29.377Z,22.40
2022-08-09T00:12:04.334Z,22.30
2022-08-09T00:14:38.013Z,22.20
2022-08-09T00:17:05.610Z,22.10
2022-08-09T00:19:32.464Z,22.00
2022-08-09T00:22:00.990Z,21.90
2022-08-09T00:24:31.882Z,21.90
2022-08-09T00:26:59.809Z,21.80
2022-08-09T00:30:09.989Z,21.70
2022-08-09T00:32:26.713Z,21.70
2022-08-09T00:34:54.853Z,21.70
2022-08-09T00:37:21.663Z,21.60
2022-08-09T00:40:14.202Z,21.60
2022-08-09T00:44:10.711Z,21.60
2022-08-09T00:45:21.619Z,21.60
2022-08-09T00:47:48.277Z,21.60
2022-08-09T00:50:15.142Z,21.70
2022-08-09T00:52:42.267Z,21.70
2022-08-09T00:55:16.671Z,21.70
2022-08-09T00:57:59.154Z,21.60
2022-08-09T01:00:27.409Z,21.60
2022-08-09T01:03:11.533Z,21.60
2022-08-09T01:05:54.363Z,21.50
2022-08-09T01:08:49.375Z,21.40
2022-08-09T01:11:55.702Z,21.30
2022-08-09T01:14:32.732Z,21.30
2022-08-09T01:17:17.864Z,21.30
2022-08-09T01:20:18.074Z,21.40
2022-08-09T01:24:02.623Z,21.30
2022-08-09T01:26:40.834Z,21.20
2022-08-09T01:29:10.365Z,21.20
2022-08-09T01:32:31.750Z,21.20
2022-08-09T01:34:35.396Z,21.20
2022-08-09T01:37:06.669Z,21.20
2022-08-09T01:39:37.863Z,21.20
2022-08-09T01:42:11.241Z,21.20
2022-08-09T01:44:41.171Z,21.10
2022-08-09T01:47:11.824Z,21.10
2022-08-09T01:49:39.879Z,21.10
2022-08-09T01:52:15.088Z,21.10
2022-08-09T01:54:48.820Z,21.10
2022-08-09T01:57:40.081Z,21.10
2022-08-09T02:00:34.554Z,21.00
2022-08-09T02:03:01.534Z,21.00
2022-08-09T02:05:35.474Z,21.00
2022-08-09T02:08:40.462Z,21.00
2022-08-09T02:10:58.915Z,20.90
2022-08-09T02:13:37.302Z,20.90
2022-08-09T02:16:09.636Z,21.00
2022-08-09T02:18:38.997Z,21.10
2022-08-09T02:21:17.056Z,21.00
2022-08-09T02:23:54.632Z,21.00
2022-08-09T02:26:25.281Z,21.00
2022-08-09T02:29:18.616Z,21.10
2022-08-09T02:31:47.527Z,21.00
2022-08-09T02:34:25.917Z,21.00
2022-08-09T02:37:11.994Z,20.90
2022-08-09T02:39:49.815Z,20.90
2022-08-09T02:42:27.772Z,20.90
2022-08-09T02:45:02.906Z,20.90
2022-08-09T02:47:33.723Z,20.90
2022-08-09T02:50:21.666Z,20.90
2022-08-09T02:52:55.299Z,20.90
2022-08-09T02:55:46.385Z,20.80
2022-08-09T02:58:35.439Z,20.80
2022-08-09T03:01:04.177Z,20.80
2022-08-09T03:04:13.180Z,20.80
2022-08-09T03:06:22.690Z,20.90
2022-08-09T03:08:51.370Z,20.90
2022-08-09T03:12:06.287Z,20.90
2022-08-09T03:14:14.228Z,20.90
2022-08-09T03:16:45.088Z,21.00
2022-08-09T03:19:14.332Z,20.90
2022-08-09T03:22:03.304Z,20.90
2022-08-09T03:24:31.431Z,20.90
2022-08-09T03:27:09.790Z,20.80
2022-08-09T03:29:56.949Z,20.80
2022-08-09T03:32:25.330Z,20.80
2022-08-09T03:34:54.221Z,20.80
2022-08-09T03:37:55.941Z,20.90
2022-08-09T03:40:13.086Z,20.90
2022-08-09T03:42:43.153Z,20.90
2022-08-09T03:45:11.159Z,20.80
2022-08-09T03:47:40.264Z,20.80
2022-08-09T03:50:27.650Z,20.70
2022-08-09T03:53:01.493Z,20.70
2022-08-09T03:55:36.047Z,20.70
2022-08-09T03:58:16.311Z,20.70
2022-08-09T04:00:45.378Z,20.70
2022-08-09T04:03:19.540Z,20.80
2022-08-09T04:05:51.941Z,20.70
2022-08-09T04:08:19.089Z,20.70
2022-08-09T04:10:55.836Z,20.70
2022-08-09T04:14:36.881Z,20.60
2022-08-09T04:16:17.703Z,20.50
2022-08-09T04:18:47.031Z,20.50
2022-08-09T04:21:15.912Z,20.60
2022-08-09T04:23:53.572Z,20.50
2022-08-09T04:26:24.167Z,20.50
2022-08-09T04:28:52.384Z,20.50
2022-08-09T04:31:21.683Z,20.60
2022-08-09T04:33:56.808Z,20.60
2022-08-09T04:36:28.989Z,20.70
2022-08-09T04:38:59.435Z,20.70
2022-08-09T04:41:32.102Z,20.60
2022-08-09T04:44:05.729Z,20.60
2022-08-09T04:46:37.618Z,20.60
2022-08-09T04:49:47.726Z,20.60
2022-08-09T04:52:10.084Z,20.60
2022-08-09T04:54:37.158Z,20.60
2022-08-09T04:57:04.557Z,20.60
2022-08-09T04:59:36.010Z,20.60
2022-08-09T05:02:03.181Z,20.60
2022-08-09T05:04:31.257Z,20.70
2022-08-09T05:06:58.606Z,20.70
2022-08-09T05:09:25.531Z,20.70
2022-08-09T05:12:09.444Z,20.70
2022-08-09T05:14:37.960Z,20.70
2022-08-09T05:17:15.279Z,20.80
2022-08-09T05:19:56.675Z,20.80
2022-08-09T05:22:35.863Z,20.80
2022-08-09T05:25:12.108Z,20.90
2022-08-09T05:27:46.389Z,21.00
2022-08-09T05:30:15.255Z,21.10
2022-08-09T05:32:50.847Z,21.00
2022-08-09T05:35:22.149Z,20.90
2022-08-09T05:37:50.448Z,20.80
2022-08-09T05:40:18.249Z,20.80
2022-08-09T05:42:45.493Z,20.90
2022-08-09T05:45:14.260Z,21.00
2022-08-09T05:47:52.503Z,21.10
2022-08-09T05:50:36.038Z,21.10
2022-08-09T05:53:21.375Z,21.00
2022-08-09T05:55:57.568Z,21.00
2022-08-09T05:58:24.171Z,20.90
2022-08-09T06:00:51.125Z,20.90
2022-08-09T06:03:20.043Z,20.90
2022-08-09T06:05:58.216Z,21.00
2022-08-09T06:08:33.093Z,21.10
2022-08-09T06:11:00.747Z,21.20
2022-08-09T06:13:28.783Z,21.10
2022-08-09T06:16:01.528Z,21.20
2022-08-09T06:18:32.292Z,21.40
2022-08-09T06:20:59.022Z,21.40
2022-08-09T06:23:58.024Z,21.30
2022-08-09T06:26:21.282Z,21.30
2022-08-09T06:29:01.018Z,21.50
2022-08-09T06:31:39.938Z,21.60
2022-08-09T06:34:18.661Z,21.80
2022-08-09T06:36:45.903Z,21.80
2022-08-09T06:39:13.512Z,21.70
2022-08-09T06:42:09.027Z,21.60
2022-08-09T06:44:30.953Z,21.50
2022-08-09T06:46:57.574Z,21.60
2022-08-09T06:49:44.860Z,21.80
2022-08-09T06:52:15.579Z,21.70
2022-08-09T06:54:42.829Z,21.50
2022-08-09T06:57:11.867Z,21.50
2022-08-09T07:00:55.527Z,21.60
2022-08-09T07:02:30.774Z,21.60
2022-08-09T07:04:58.444Z,21.60
2022-08-09T07:08:00.551Z,21.60
2022-08-09T07:10:29.514Z,21.60
2022-08-09T07:12:57.085Z,21.70
2022-08-09T07:16:39.610Z,21.80
2022-08-09T07:18:11.543Z,22.00
2022-08-09T07:20:43.660Z,22.10
2022-08-09T07:23:18.271Z,22.20
2022-08-09T07:25:47.552Z,22.20
2022-08-09T07:28:19.164Z,22.10
2022-08-09T07:30:53.973Z,22.00
2022-08-09T07:33:22.096Z,22.10
2022-08-09T07:35:54.362Z,22.10
2022-08-09T07:38:21.661Z,22.00
2022-08-09T07:41:09.805Z,22.10
2022-08-09T07:43:41.052Z,22.00
2022-08-09T07:46:19.006Z,22.10
2022-08-09T07:48:46.584Z,22.00
2022-08-09T07:52:05.548Z,22.00
2022-08-09T07:54:12.660Z,22.00
2022-08-09T07:56:49.395Z,22.00
2022-08-09T07:59:34.772Z,22.10
2022-08-09T08:02:05.253Z,22.00
2022-08-09T08:04:33.001Z,22.10
2022-08-09T08:07:09.472Z,22.00
2022-08-09T08:10:07.497Z,22.00
2022-08-09T08:12:43.517Z,22.10
2022-08-09T08:15:17.869Z,22.20
2022-08-09T08:17:58.027Z,22.30
2022-08-09T08:20:30.808Z,22.30
2022-08-09T08:23:06.646Z,22.30
2022-08-09T08:25:46.092Z,22.30
2022-08-09T08:28:15.003Z,22.20
2022-08-09T08:30:43.756Z,22.10
2022-08-09T08:33:11.701Z,22.10
2022-08-09T08:35:59.089Z,22.10
2022-08-09T08:38:26.028Z,22.20
2022-08-09T08:40:57.444Z,22.30
2022-08-09T08:43:27.094Z,22.20
2022-08-09T08:46:09.926Z,22.10
2022-08-09T08:48:51.750Z,22.20
2022-08-09T08:51:22.502Z,22.20
2022-08-09T08:54:04.189Z,22.20
2022-08-09T08:56:34.237Z,22.30
2022-08-09T08:59:07.791Z,22.30
2022-08-09T09:01:53.010Z,22.20
2022-08-09T09:04:29.632Z,22.10
2022-08-09T09:07:01.457Z,22.10
2022-08-09T09:09:57.968Z,22.30
2022-08-09T09:12:19.360Z,22.30
2022-08-09T09:14:49.807Z,22.40
2022-08-09T09:17:19.688Z,22.40
2022-08-09T09:19:47.835Z,22.40
2022-08-09T09:22:17.385Z,22.40
2022-08-09T09:26:02.033Z,22.40
2022-08-09T09:28:04.985Z,22.40
2022-08-09T09:30:47.295Z,22.40
2022-08-09T09:33:17.480Z,22.30
2022-08-09T09:36:01.864Z,22.30
2022-08-09T09:38:59.547Z,22.40
2022-08-09T09:41:27.870Z,22.40
2022-08-09T09:44:12.373Z,22.40
2022-08-09T09:46:51.060Z,22.40
2022-08-09T09:49:23.503Z,22.50
2022-08-09T09:52:35.890Z,22.50
2022-08-09T09:55:16.808Z,22.50
2022-08-09T09:58:17.119Z,22.40
2022-08-09T10:00:54.076Z,22.50
2022-08-09T10:03:39.728Z,22.50
2022-08-09T10:06:06.823Z,22.50
2022-08-09T10:08:42.682Z,22.40
2022-08-09T10:12:00.742Z,22.50
2022-08-09T10:14:27.279Z,22.50
2022-08-09T10:17:11.324Z,22.50
2022-08-09T10:19:45.837Z,22.50
2022-08-09T10:22:12.754Z,22.50
2022-08-09T10:24:40.315Z,22.50
2022-08-09T10:27:10.318Z,22.50
2022-08-09T10:30:49.413Z,22.50
2022-08-09T10:32:48.524Z,22.50
2022-08-09T10:35:16.324Z,22.50
2022-08-09T10:37:47.145Z,22.50
2022-08-09T10:40:34.841Z,22.50
2022-08-09T10:43:05.788Z,22.50
2022-08-09T10:45:42.371Z,22.50
2022-08-09T10:48:36.749Z,22.40
2022-08-09T10:51:14.938Z,22.40
2022-08-09T10:53:56.186Z,22.40
2022-08-09T10:56:25.911Z,22.40
2022-08-09T10:58:54.505Z,22.50
2022-08-09T11:03:15.114Z,22.40
2022-08-09T11:04:31.003Z,22.40
2022-08-09T11:06:59.752Z,22.40
2022-08-09T11:09:41.165Z,22.40
2022-08-09T11:12:20.204Z,22.50
2022-08-09T11:15:20.221Z,22.50
2022-08-09T11:18:02.692Z,22.50
2022-08-09T11:20:42.150Z,22.60
2022-08-09T11:23:10.886Z,22.70
2022-08-09T11:25:46.110Z,22.70
2022-08-09T11:28:54.122Z,22.60
2022-08-09T11:31:50.247Z,22.70
2022-08-09T11:34:25.040Z,22.80
2022-08-09T11:36:52.679Z,22.70
2022-08-09T11:39:19.596Z,22.60
2022-08-09T11:41:46.755Z,22.70
2022-08-09T11:44:15.530Z,22.70
2022-08-09T11:46:57.704Z,22.60
2022-08-09T11:50:55.585Z,22.60
2022-08-09T11:53:15.561Z,22.50
2022-08-09T11:55:53.296Z,22.50
2022-08-09T11:58:32.653Z,22.50
2022-08-09T12:01:15.546Z,22.50
2022-08-09T12:04:01.409Z,22.50
2022-08-09T12:06:32.363Z,22.50
2022-08-09T12:09:01.098Z,22.50
2022-08-09T12:11:29.041Z,22.50
2022-08-09T12:14:10.868Z,22.50
2022-08-09T12:16:41.536Z,22.50
2022-08-09T12:19:12.161Z,22.50
2022-08-09T12:21:50.406Z,22.50
2022-08-09T12:24:25.260Z,22.50
2022-08-09T12:29:11.993Z,22.50
2022-08-09T12:30:00.114Z,22.50
2022-08-09T12:32:44.246Z,22.80
2022-08-09T12:35:13.419Z,23.00
2022-08-09T12:37:51.734Z,22.90
2022-08-09T12:40:21.083Z,22.80
2022-08-09T12:42:50.526Z,22.70
2022-08-09T12:45:32.725Z,22.60
2022-08-09T12:48:02.705Z,22.60
2022-08-09T12:50:29.463Z,22.50
2022-08-09T12:53:18.189Z,22.50
2022-08-09T12:56:12.014Z,22.60
2022-08-09T12:58:29.431Z,22.90
2022-08-09T13:00:57.758Z,22.80
2022-08-09T13:03:53.086Z,22.90
2022-08-09T13:06:36.674Z,22.90
2022-08-09T13:09:14.552Z,22.80
2022-08-09T13:11:44.265Z,22.80
2022-08-09T13:14:40.892Z,22.70
2022-08-09T13:17:08.434Z,22.90
2022-08-09T13:20:10.334Z,23.30
2022-08-09T13:22:37.896Z,23.30
2022-08-09T13:25:14.216Z,23.10
2022-08-09T13:27:54.618Z,22.90
2022-08-09T13:31:11.085Z,22.80
2022-08-09T13:33:20.894Z,22.80
2022-08-09T13:36:39.706Z,22.80
2022-08-09T13:38:56.514Z,22.70
2022-08-09T13:41:59.071Z,22.70
2022-08-09T13:44:13.700Z,22.70
2022-08-09T13:47:26.520Z,22.60
2022-08-09T13:49:39.760Z,22.60
2022-08-09T13:52:22.267Z,22.60
2022-08-09T13:55:00.197Z,22.60
2022-08-09T13:57:37.518Z,22.70
2022-08-09T14:00:13.317Z,22.70
2022-08-09T14:03:03.124Z,22.70
2022-08-09T14:05:59.306Z,22.60
2022-08-09T14:08:17.397Z,22.70
2022-08-09T14:10:52.705Z,22.70
2022-08-09T14:13:27.921Z,22.70
2022-08-09T14:16:14.110Z,22.70
2022-08-09T14:18:46.018Z,22.60
2022-08-09T14:21:22.535Z,22.60
2022-08-09T14:23:55.067Z,22.70
2022-08-09T14:26:32.127Z,22.60
2022-08-09T14:29:02.090Z,22.70
2022-08-09T14:31:35.900Z,22.70
2022-08-09T14:34:17.432Z,22.70
2022-08-09T14:36:55.221Z,22.70
2022-08-09T14:39:22.051Z,22.70
2022-08-09T14:42:08.753Z,22.70
2022-08-09T14:44:59.057Z,22.70
2022-08-09T14:47:39.703Z,22.70
2022-08-09T14:50:09.201Z,22.70
2022-08-09T14:52:38.159Z,22.70
2022-08-09T14:55:06.863Z,22.60
2022-08-09T14:57:42.900Z,22.60
2022-08-09T15:00:11.538Z,22.60
2022-08-09T15:02:38.813Z,22.70
2022-08-09T15:05:07.139Z,22.60
2022-08-09T15:07:35.401Z,22.70
2022-08-09T15:10:11.163Z,22.70
2022-08-09T15:12:44.978Z,22.70
2022-08-09T15:15:13.178Z,22.70
2022-08-09T15:17:41.829Z,22.70
2022-08-09T15:20:11.864Z,22.70
2022-08-09T15:22:46.484Z,22.70
2022-08-09T15:25:14.399Z,22.70
2022-08-09T15:27:47.590Z,22.70
2022-08-09T15:30:57.789Z,22.70
2022-08-09T15:33:08.235Z,22.70
2022-08-09T15:35:40.825Z,22.70
2022-08-09T15:38:12.195Z,22.70
2022-08-09T15:40:43.412Z,22.70
2022-08-09T15:43:13.646Z,22.70
2022-08-09T15:45:51.982Z,22.70
2022-08-09T15:48:28.753Z,22.70
2022-08-09T15:50:56.536Z,22.70
2022-08-09T15:54:05.236Z,22.70
2022-08-09T15:56:23.350Z,22.70
2022-08-09T15:58:56.543Z,22.70
2022-08-09T16:01:23.206Z,22.80
2022-08-09T16:03:50.991Z,22.80
2022-08-09T16:06:32.876Z,22.70
2022-08-09T16:09:05.215Z,22.70
2022-08-09T16:11:32.889Z,22.80
2022-08-09T16:14:04.781Z,22.70
2022-08-09T16:16:34.686Z,22.70
2022-08-09T16:19:08.519Z,22.70
2022-08-09T16:21:36.812Z,22.70
2022-08-09T16:24:08.813Z,22.70
2022-08-09T16:26:55.261Z,22.70
2022-08-09T16:29:37.564Z,22.70
2022-08-09T16:32:33.237Z,22.70
2022-08-09T16:34:58.469Z,22.70
2022-08-09T16:37:54.651Z,22.70
2022-08-09T16:40:20.704Z,22.70
2022-08-09T16:43:02.505Z,22.70
2022-08-09T16:45:29.268Z,22.70
2022-08-09T16:48:42.960Z,22.80
2022-08-09T16:50:49.587Z,22.80
2022-08-09T16:53:26.772Z,22.70
2022-08-09T16:56:03.595Z,22.70
2022-08-09T16:58:35.830Z,22.70
2022-08-09T17:01:04.256Z,22.80
2022-08-09T17:03:31.310Z,22.80
2022-08-09T17:06:06.777Z,22.80
2022-08-09T17:08:44.818Z,22.80
2022-08-09T17:11:33.094Z,22.80
2022-08-09T17:14:08.595Z,22.80
2022-08-09T17:16:53.921Z,22.80
2022-08-09T17:19:20.951Z,22.80
2022-08-09T17:21:47.723Z,22.80
2022-08-09T17:24:28.188Z,22.80
2022-08-09T17:26:57.600Z,22.70
2022-08-09T17:29:31.814Z,22.80
2022-08-09T17:32:05.085Z,22.80
2022-08-09T17:35:07.697Z,22.80
2022-08-09T17:37:19.300Z,22.70
2022-08-09T17:39:53.198Z,22.80
2022-08-09T17:42:41.939Z,22.80
2022-08-09T17:45:23.806Z,22.80
2022-08-09T17:48:02.394Z,22.80
2022-08-09T17:50:36.734Z,22.80
2022-08-09T17:53:10.303Z,22.90
2022-08-09T17:55:50.281Z,22.80
2022-08-09T17:58:19.014Z,22.80
2022-08-09T18:00:48.303Z,22.80
2022-08-09T18:03:17.584Z,22.80
2022-08-09T18:05:44.536Z,22.90
2022-08-09T18:08:13.268Z,22.80
2022-08-09T18:10:40.226Z,22.80
2022-08-09T18:13:53.636Z,22.80
2022-08-09T18:16:07.815Z,22.80
2022-08-09T18:18:36.194Z,22.80
2022-08-09T18:21:23.200Z,22.80
2022-08-09T18:24:11.240Z,22.90
2022-08-09T18:26:46.246Z,22.90
2022-08-09T18:30:38.039Z,22.90
2022-08-09T18:32:02.982Z,22.90
2022-08-09T18:34:31.535Z,22.90
2022-08-09T18:36:58.888Z,22.90
2022-08-09T18:39:32.030Z,22.90
2022-08-09T18:42:01.658Z,22.90
2022-08-09T18:44:29.000Z,22.90
2022-08-09T18:47:08.093Z,22.90
2022-08-09T18:49:46.344Z,22.90
2022-08-09T18:52:15.836Z,22.90
2022-08-09T18:54:52.502Z,23.00
2022-08-09T18:57:22.389Z,22.90
2022-08-09T18:59:54.375Z,23.00
2022-08-09T19:02:31.974Z,22.90
2022-08-09T19:05:15.299Z,22.90
2022-08-09T19:08:04.102Z,22.90
2022-08-09T19:10:37.039Z,22.90
2022-08-09T19:13:22.168Z,22.90
2022-08-09T19:15:55.775Z,22.90
2022-08-09T19:18:34.262Z,22.90
2022-08-09T19:21:09.423Z,22.90
2022-08-09T19:24:36.259Z,22.90
2022-08-09T19:26:31.214Z,22.90
2022-08-09T19:29:01.736Z,23.00
2022-08-09T19:31:30.381Z,23.00
2022-08-09T19:33:58.042Z,23.00
2022-08-09T19:36:30.937Z,23.00
2022-08-09T19:39:01.156Z,23.10
2022-08-09T19:41:33.124Z,23.00
2022-08-09T19:44:03.352Z,23.10
2022-08-09T19:46:35.161Z,23.10
2022-08-09T19:50:09.219Z,23.10
2022-08-09T19:51:55.231Z,23.00
2022-08-09T19:54:32.015Z,23.00
2022-08-09T19:56:59.050Z,23.10
2022-08-09T19:59:59.595Z,23.10
2022-08-09T20:04:11.316Z,23.10
2022-08-09T20:05:10.266Z,23.10
2022-08-09T20:07:56.949Z,23.10
2022-08-09T20:10:34.589Z,23.10
2022-08-09T20:13:05.166Z,23.10
2022-08-09T20:16:33.030Z,23.10
2022-08-09T20:18:20.041Z,23.10
2022-08-09T20:20:47.288Z,23.00
2022-08-09T20:23:19.327Z,23.10
2022-08-09T20:25:53.555Z,23.10
2022-08-09T20:28:27.585Z,23.10
2022-08-09T20:30:55.159Z,23.10
2022-08-09T20:33:22.104Z,23.10
2022-08-09T20:35:51.619Z,23.10
2022-08-09T20:38:33.990Z,23.10
2022-08-09T20:41:05.261Z,23.10
2022-08-09T20:43:32.929Z,23.10
2022-08-09T20:46:33.252Z,23.10
2022-08-09T20:48:48.091Z,23.10
2022-08-09T20:51:19.281Z,23.10
2022-08-09T20:53:46.408Z,23.10
2022-08-09T20:56:20.106Z,23.10
2022-08-09T20:58:47.467Z,23.10
2022-08-09T21:01:34.908Z,23.10
2022-08-09T21:05:49.145Z,23.10
2022-08-09T21:06:50.854Z,23.10
2022-08-09T21:09:32.618Z,23.10
2022-08-09T21:14:36.970Z,23.10
2022-08-09T21:18:11.430Z,23.20
2022-08-09T21:20:17.722Z,23.10
2022-08-09T21:22:41.913Z,23.20
2022-08-09T21:25:37.920Z,23.20
2022-08-09T21:28:05.386Z,23.20
2022-08-09T21:30:37.040Z,23.20
2022-08-09T21:33:07.977Z,23.20
2022-08-09T21:35:40.814Z,23.10
2022-08-09T21:38:30.817Z,23.10
2022-08-09T21:40:59.377Z,23.10
2022-08-09T21:43:56.732Z,23.10
2022-08-09T21:46:13.756Z,23.10
2022-08-09T21:48:42.567Z,23.10
2022-08-09T21:51:14.326Z,23.10
2022-08-09T21:53:54.780Z,23.10
2022-08-09T21:56:43.479Z,23.00
2022-08-09T21:59:09.291Z,23.00
2022-08-09T22:01:58.509Z,23.00
2022-08-09T22:04:23.141Z,22.90
2022-08-09T22:07:09.912Z,22.90
2022-08-09T22:09:38.925Z,22.90
2022-08-09T22:12:19.089Z,22.90
2022-08-09T22:14:57.824Z,22.90
2022-08-09T22:17:24.655Z,22.90
2022-08-09T22:19:58.851Z,22.90
2022-08-09T22:22:28.272Z,22.80
2022-08-09T22:26:05.462Z,22.80
2022-08-09T22:27:42.514Z,22.70
2022-08-09T22:30:10.161Z,22.70
2022-08-09T22:32:37.611Z,22.70
2022-08-09T22:36:00.735Z,22.70
2022-08-09T22:38:07.077Z,22.60
2022-08-09T22:40:35.029Z,22.70
2022-08-09T22:43:08.470Z,22.60
2022-08-09T22:48:11.357Z,22.60
2022-08-09T22:48:34.996Z,22.50
2022-08-09T22:51:10.449Z,22.50
2022-08-09T22:54:02.050Z,22.50
2022-08-09T22:56:33.931Z,22.50
2022-08-09T22:59:05.736Z,22.50
2022-08-09T23:01:49.275Z,22.50
2022-08-09T23:04:16.378Z,22.40
2022-08-09T23:07:02.901Z,22.40
2022-08-09T23:09:30.446Z,22.40
2022-08-09T23:12:03.395Z,22.40
2022-08-09T23:14:37.228Z,22.40
2022-08-09T23:17:09.760Z,22.40
2022-08-09T23:20:06.104Z,22.30
2022-08-09T23:22:23.201Z,22.30
2022-08-09T23:24:50.002Z,22.30
2022-08-09T23:27:16.659Z,22.20
2022-08-09T23:29:43.412Z,22.20
2022-08-09T23:32:10.347Z,22.30
2022-08-09T23:34:37.629Z,22.20
2022-08-09T23:37:04.692Z,22.10
2022-08-09T23:39:31.499Z,22.00
2022-08-09T23:41:58.399Z,22.00
2022-08-09T23:44:25.112Z,22.00
2022-08-09T23:46:52.896Z,22.00
2022-08-09T23:49:25.181Z,22.00
2022-08-09T23:51:53.107Z,21.90
2022-08-09T23:54:20.331Z,21.90
2022-08-09T23:56:54.149Z,21.90
2022-08-09T23:59:22.942Z,21.90
